sensor_id;sensor_type;location;lat;lon;timestamp;temperature;humidity
69204;DHT22;56317;27.658;85.326;2022-12-10T00:01:16;6.40;99.90
69204;DHT22;56317;27.658;85.326;2022-12-10T00:03:45;6.40;99.90
69204;DHT22;56317;27.658;85.326;2022-12-10T00:06:16;6.40;99.90
69204;DHT22;56317;27.658;85.326;2022-12-10T00:08:43;6.40;99.90
69204;DHT22;56317;27.658;85.326;2022-12-10T00:11:13;6.40;99.90
69204;DHT22;56317;27.658;85.326;2022-12-10T00:13:42;6.40;99.90
69204;DHT22;56317;27.658;85.326;2022-12-10T00:16:11;6.40;99.90
69204;DHT22;56317;27.658;85.326;2022-12-10T00:18:39;6.40;99.90
69204;DHT22;56317;27.658;85.326;2022-12-10T00:21:09;6.40;99.90
69204;DHT22;56317;27.658;85.326;2022-12-10T00:23:37;6.30;99.90
69204;DHT22;56317;27.658;85.326;2022-12-10T00:26:10;6.30;99.90
69204;DHT22;56317;27.658;85.326;2022-12-10T00:28:38;6.40;99.90
69204;DHT22;56317;27.658;85.326;2022-12-10T00:31:07;6.40;99.90
69204;DHT22;56317;27.658;85.326;2022-12-10T00:33:36;6.40;99.90
69204;DHT22;56317;27.658;85.326;2022-12-10T00:36:05;6.40;99.90
69204;DHT22;56317;27.658;85.326;2022-12-10T00:38:33;6.30;99.90
69204;DHT22;56317;27.658;85.326;2022-12-10T00:41:00;6.30;99.90
69204;DHT22;56317;27.658;85.326;2022-12-10T00:43:27;6.30;99.90
69204;DHT22;56317;27.658;85.326;2022-12-10T00:45:55;6.20;99.90
69204;DHT22;56317;27.658;85.326;2022-12-10T00:48:23;6.30;99.90
69204;DHT22;56317;27.658;85.326;2022-12-10T00:53:31;6.20;99.90
69204;DHT22;56317;27.658;85.326;2022-12-10T00:55:58;6.20;99.90
69204;DHT22;56317;27.658;85.326;2022-12-10T00:58:31;6.20;99.90
69204;DHT22;56317;27.658;85.326;2022-12-10T01:03:35;6.30;99.90
69204;DHT22;56317;27.658;85.326;2022-12-10T01:06:15;6.30;99.90
69204;DHT22;56317;27.658;85.326;2022-12-10T01:08:44;6.30;99.90
69204;DHT22;56317;27.658;85.326;2022-12-10T01:11:14;6.40;99.90
69204;DHT22;56317;27.658;85.326;2022-12-10T01:13:42;6.40;99.90
69204;DHT22;56317;27.658;85.326;2022-12-10T01:16:12;6.50;99.90
69204;DHT22;56317;27.658;85.326;2022-12-10T01:18:41;6.60;99.90
69204;DHT22;56317;27.658;85.326;2022-12-10T01:21:13;6.60;99.90
69204;DHT22;56317;27.658;85.326;2022-12-10T01:23:41;6.60;99.90
69204;DHT22;56317;27.658;85.326;2022-12-10T01:26:14;6.70;99.90
69204;DHT22;56317;27.658;85.326;2022-12-10T01:28:42;6.80;99.90
69204;DHT22;56317;27.658;85.326;2022-12-10T01:31:20;6.90;99.90
69204;DHT22;56317;27.658;85.326;2022-12-10T01:33:48;7.00;99.90
69204;DHT22;56317;27.658;85.326;2022-12-10T01:36:25;7.10;99.90
69204;DHT22;56317;27.658;85.326;2022-12-10T01:38:52;7.20;99.90
69204;DHT22;56317;27.658;85.326;2022-12-10T01:41:47;7.30;99.90
69204;DHT22;56317;27.658;85.326;2022-12-10T01:46:45;7.50;99.90
69204;DHT22;56317;27.658;85.326;2022-12-10T01:49:22;7.60;99.90
69204;DHT22;56317;27.658;85.326;2022-12-10T01:51:54;7.80;99.90
69204;DHT22;56317;27.658;85.326;2022-12-10T01:54:30;8.00;99.90
69204;DHT22;56317;27.658;85.326;2022-12-10T01:59:29;8.30;99.90
69204;DHT22;56317;27.658;85.326;2022-12-10T02:04:56;8.70;99.90
69204;DHT22;56317;27.658;85.326;2022-12-10T02:07:37;8.90;99.90
69204;DHT22;56317;27.658;85.326;2022-12-10T02:10:20;9.10;99.90
69204;DHT22;56317;27.658;85.326;2022-12-10T02:12:59;9.40;99.90
69204;DHT22;56317;27.658;85.326;2022-12-10T02:15:58;9.60;99.90
69204;DHT22;56317;27.658;85.326;2022-12-10T02:18:29;9.90;99.90
69204;DHT22;56317;27.658;85.326;2022-12-10T02:21:45;10.20;99.90
69204;DHT22;56317;27.658;85.326;2022-12-10T02:24:01;10.40;99.90
69204;DHT22;56317;27.658;85.326;2022-12-10T02:26:42;10.70;99.90
69204;DHT22;56317;27.658;85.326;2022-12-10T02:29:17;11.00;99.90
69204;DHT22;56317;27.658;85.326;2022-12-10T02:34:43;11.40;99.90
69204;DHT22;56317;27.658;85.326;2022-12-10T02:37:27;11.60;99.90
69204;DHT22;56317;27.658;85.326;2022-12-10T02:39:58;11.80;99.90
69204;DHT22;56317;27.658;85.326;2022-12-10T02:42:27;12.10;99.90
69204;DHT22;56317;27.658;85.326;2022-12-10T02:44:57;12.20;99.90
69204;DHT22;56317;27.658;85.326;2022-12-10T02:47:25;12.50;99.90
69204;DHT22;56317;27.658;85.326;2022-12-10T02:49:56;12.70;99.90
69204;DHT22;56317;27.658;85.326;2022-12-10T02:52:25;12.90;99.90
69204;DHT22;56317;27.658;85.326;2022-12-10T02:54:53;13.20;99.90
69204;DHT22;56317;27.658;85.326;2022-12-10T03:00:24;13.50;99.90
69204;DHT22;56317;27.658;85.326;2022-12-10T03:11:16;14.60;99.90
69204;DHT22;56317;27.658;85.326;2022-12-10T03:14:20;14.90;99.90
69204;DHT22;56317;27.658;85.326;2022-12-10T03:16:42;15.30;99.90
69204;DHT22;56317;27.658;85.326;2022-12-10T03:19:15;15.80;99.90
69204;DHT22;56317;27.658;85.326;2022-12-10T03:21:46;16.40;99.90
69204;DHT22;56317;27.658;85.326;2022-12-10T03:24:14;17.10;99.90
69204;DHT22;56317;27.658;85.326;2022-12-10T03:26:46;17.70;99.90
69204;DHT22;56317;27.658;85.326;2022-12-10T03:29:17;18.50;99.60
69204;DHT22;56317;27.658;85.326;2022-12-10T03:31:49;19.10;99.20
69204;DHT22;56317;27.658;85.326;2022-12-10T03:34:17;19.60;96.70
69204;DHT22;56317;27.658;85.326;2022-12-10T03:36:45;20.20;93.20
69204;DHT22;56317;27.658;85.326;2022-12-10T03:39:13;20.70;92.10
69204;DHT22;56317;27.658;85.326;2022-12-10T03:41:41;21.00;89.40
69204;DHT22;56317;27.658;85.326;2022-12-10T03:44:08;21.40;87.90
69204;DHT22;56317;27.658;85.326;2022-12-10T03:46:35;21.90;84.20
69204;DHT22;56317;27.658;85.326;2022-12-10T03:49:03;22.20;83.50
69204;DHT22;56317;27.658;85.326;2022-12-10T03:51:31;22.60;80.10
69204;DHT22;56317;27.658;85.326;2022-12-10T03:53:58;23.00;75.70
69204;DHT22;56317;27.658;85.326;2022-12-10T03:56:25;23.50;74.50
69204;DHT22;56317;27.658;85.326;2022-12-10T03:58:52;23.60;77.70
69204;DHT22;56317;27.658;85.326;2022-12-10T04:01:20;23.80;74.00
69204;DHT22;56317;27.658;85.326;2022-12-10T04:03:47;24.30;71.20
69204;DHT22;56317;27.658;85.326;2022-12-10T04:06:17;24.90;68.80
69204;DHT22;56317;27.658;85.326;2022-12-10T04:08:45;25.40;66.90
69204;DHT22;56317;27.658;85.326;2022-12-10T04:11:14;25.90;63.40
69204;DHT22;56317;27.658;85.326;2022-12-10T04:13:42;26.10;64.50
69204;DHT22;56317;27.658;85.326;2022-12-10T04:16:29;26.40;63.80
69204;DHT22;56317;27.658;85.326;2022-12-10T04:19:00;26.60;60.80
69204;DHT22;56317;27.658;85.326;2022-12-10T04:21:29;27.00;58.80
69204;DHT22;56317;27.658;85.326;2022-12-10T04:24:20;27.40;57.00
69204;DHT22;56317;27.658;85.326;2022-12-10T04:27:09;27.70;55.40
69204;DHT22;56317;27.658;85.326;2022-12-10T04:29:37;28.20;53.20
69204;DHT22;56317;27.658;85.326;2022-12-10T04:32:06;28.70;54.60
69204;DHT22;56317;27.658;85.326;2022-12-10T04:34:33;29.00;52.30
69204;DHT22;56317;27.658;85.326;2022-12-10T04:37:02;29.30;52.80
69204;DHT22;56317;27.658;85.326;2022-12-10T04:39:30;29.70;51.20
69204;DHT22;56317;27.658;85.326;2022-12-10T04:41:58;30.20;50.20
69204;DHT22;56317;27.658;85.326;2022-12-10T04:44:26;30.60;48.00
69204;DHT22;56317;27.658;85.326;2022-12-10T04:46:53;30.90;47.70
69204;DHT22;56317;27.658;85.326;2022-12-10T04:49:20;31.10;47.00
69204;DHT22;56317;27.658;85.326;2022-12-10T04:51:48;31.50;46.30
69204;DHT22;56317;27.658;85.326;2022-12-10T04:54:16;31.90;45.00
69204;DHT22;56317;27.658;85.326;2022-12-10T04:56:43;32.00;44.70
69204;DHT22;56317;27.658;85.326;2022-12-10T04:59:17;32.20;45.20
69204;DHT22;56317;27.658;85.326;2022-12-10T05:01:44;32.70;43.50
69204;DHT22;56317;27.658;85.326;2022-12-10T05:04:13;33.30;42.40
69204;DHT22;56317;27.658;85.326;2022-12-10T05:06:41;33.50;42.50
69204;DHT22;56317;27.658;85.326;2022-12-10T05:09:09;33.90;41.70
69204;DHT22;56317;27.658;85.326;2022-12-10T05:11:37;34.10;40.90
69204;DHT22;56317;27.658;85.326;2022-12-10T05:14:05;34.00;40.50
69204;DHT22;56317;27.658;85.326;2022-12-10T05:16:34;34.50;40.10
69204;DHT22;56317;27.658;85.326;2022-12-10T05:19:01;35.00;39.30
69204;DHT22;56317;27.658;85.326;2022-12-10T05:21:29;35.50;38.90
69204;DHT22;56317;27.658;85.326;2022-12-10T05:24:15;36.00;39.30
69204;DHT22;56317;27.658;85.326;2022-12-10T05:26:43;36.60;37.70
69204;DHT22;56317;27.658;85.326;2022-12-10T05:29:13;36.80;37.90
69204;DHT22;56317;27.658;85.326;2022-12-10T05:31:40;37.00;37.10
69204;DHT22;56317;27.658;85.326;2022-12-10T05:34:10;37.30;36.50
69204;DHT22;56317;27.658;85.326;2022-12-10T05:36:38;37.80;36.20
69204;DHT22;56317;27.658;85.326;2022-12-10T05:39:05;37.90;35.50
69204;DHT22;56317;27.658;85.326;2022-12-10T05:41:36;38.10;35.80
69204;DHT22;56317;27.658;85.326;2022-12-10T05:44:04;38.30;34.90
69204;DHT22;56317;27.658;85.326;2022-12-10T05:46:34;38.40;35.00
69204;DHT22;56317;27.658;85.326;2022-12-10T05:49:02;38.50;34.40
69204;DHT22;56317;27.658;85.326;2022-12-10T05:51:33;38.70;34.20
69204;DHT22;56317;27.658;85.326;2022-12-10T05:54:01;39.00;33.80
69204;DHT22;56317;27.658;85.326;2022-12-10T05:56:30;39.30;34.10
69204;DHT22;56317;27.658;85.326;2022-12-10T05:59:00;39.20;34.10
69204;DHT22;56317;27.658;85.326;2022-12-10T06:01:31;38.80;33.40
69204;DHT22;56317;27.658;85.326;2022-12-10T06:03:59;39.00;33.00
69204;DHT22;56317;27.658;85.326;2022-12-10T06:06:29;39.50;33.00
69204;DHT22;56317;27.658;85.326;2022-12-10T06:08:57;39.70;33.00
69204;DHT22;56317;27.658;85.326;2022-12-10T06:11:26;40.00;32.50
69204;DHT22;56317;27.658;85.326;2022-12-10T06:13:54;40.40;31.40
69204;DHT22;56317;27.658;85.326;2022-12-10T06:16:26;40.80;31.70
69204;DHT22;56317;27.658;85.326;2022-12-10T06:18:53;41.30;31.10
69204;DHT22;56317;27.658;85.326;2022-12-10T06:21:21;41.70;31.00
69204;DHT22;56317;27.658;85.326;2022-12-10T06:23:49;42.20;30.20
69204;DHT22;56317;27.658;85.326;2022-12-10T06:26:24;42.40;30.00
69204;DHT22;56317;27.658;85.326;2022-12-10T06:28:53;42.90;29.90
69204;DHT22;56317;27.658;85.326;2022-12-10T06:31:20;43.30;30.10
69204;DHT22;56317;27.658;85.326;2022-12-10T06:33:48;43.60;29.90
69204;DHT22;56317;27.658;85.326;2022-12-10T06:36:17;43.70;29.10
69204;DHT22;56317;27.658;85.326;2022-12-10T06:38:44;43.90;28.90
69204;DHT22;56317;27.658;85.326;2022-12-10T06:41:13;43.60;28.90
69204;DHT22;56317;27.658;85.326;2022-12-10T06:43:41;43.60;29.30
69204;DHT22;56317;27.658;85.326;2022-12-10T06:46:11;43.50;29.20
69204;DHT22;56317;27.658;85.326;2022-12-10T06:48:39;43.70;29.20
69204;DHT22;56317;27.658;85.326;2022-12-10T06:51:07;44.00;29.10
69204;DHT22;56317;27.658;85.326;2022-12-10T06:53:36;44.50;29.40
69204;DHT22;56317;27.658;85.326;2022-12-10T06:56:06;44.50;29.00
69204;DHT22;56317;27.658;85.326;2022-12-10T06:58:35;44.40;28.70
69204;DHT22;56317;27.658;85.326;2022-12-10T07:01:13;44.60;28.70
69204;DHT22;56317;27.658;85.326;2022-12-10T07:03:41;44.80;28.70
69204;DHT22;56317;27.658;85.326;2022-12-10T07:06:09;45.20;28.60
69204;DHT22;56317;27.658;85.326;2022-12-10T07:08:37;45.80;27.90
69204;DHT22;56317;27.658;85.326;2022-12-10T07:11:07;46.20;27.90
69204;DHT22;56317;27.658;85.326;2022-12-10T07:13:38;46.50;27.60
69204;DHT22;56317;27.658;85.326;2022-12-10T07:16:20;46.40;27.30
69204;DHT22;56317;27.658;85.326;2022-12-10T07:18:48;46.30;27.20
69204;DHT22;56317;27.658;85.326;2022-12-10T07:21:30;46.30;27.40
69204;DHT22;56317;27.658;85.326;2022-12-10T07:24:01;46.10;27.80
69204;DHT22;56317;27.658;85.326;2022-12-10T07:26:30;46.40;27.70
69204;DHT22;56317;27.658;85.326;2022-12-10T07:29:01;46.90;27.50
69204;DHT22;56317;27.658;85.326;2022-12-10T07:31:29;46.60;27.20
69204;DHT22;56317;27.658;85.326;2022-12-10T07:33:57;46.50;27.70
69204;DHT22;56317;27.658;85.326;2022-12-10T07:36:26;46.40;27.70
69204;DHT22;56317;27.658;85.326;2022-12-10T07:38:54;46.70;27.70
69204;DHT22;56317;27.658;85.326;2022-12-10T07:41:23;47.00;27.50
69204;DHT22;56317;27.658;85.326;2022-12-10T07:43:51;47.40;27.50
69204;DHT22;56317;27.658;85.326;2022-12-10T07:46:19;47.60;27.20
69204;DHT22;56317;27.658;85.326;2022-12-10T07:48:48;47.70;27.60
69204;DHT22;56317;27.658;85.326;2022-12-10T07:51:17;47.80;27.30
69204;DHT22;56317;27.658;85.326;2022-12-10T07:53:45;47.80;27.30
69204;DHT22;56317;27.658;85.326;2022-12-10T07:56:12;47.60;27.40
69204;DHT22;56317;27.658;85.326;2022-12-10T07:58:44;47.80;27.00
69204;DHT22;56317;27.658;85.326;2022-12-10T08:01:15;47.50;27.20
69204;DHT22;56317;27.658;85.326;2022-12-10T08:03:43;47.30;26.90
69204;DHT22;56317;27.658;85.326;2022-12-10T08:06:15;47.10;26.90
69204;DHT22;56317;27.658;85.326;2022-12-10T08:08:43;47.50;27.30
69204;DHT22;56317;27.658;85.326;2022-12-10T08:11:12;47.60;27.30
69204;DHT22;56317;27.658;85.326;2022-12-10T08:13:40;47.80;26.90
69204;DHT22;56317;27.658;85.326;2022-12-10T08:18:38;48.50;26.70
69204;DHT22;56317;27.658;85.326;2022-12-10T08:21:06;48.40;26.70
69204;DHT22;56317;27.658;85.326;2022-12-10T08:23:34;48.50;26.70
69204;DHT22;56317;27.658;85.326;2022-12-10T08:26:06;48.60;26.50
69204;DHT22;56317;27.658;85.326;2022-12-10T08:28:34;48.60;26.30
69204;DHT22;56317;27.658;85.326;2022-12-10T08:31:02;48.60;26.30
69204;DHT22;56317;27.658;85.326;2022-12-10T08:33:29;48.80;26.40
69204;DHT22;56317;27.658;85.326;2022-12-10T08:36:01;48.90;26.20
69204;DHT22;56317;27.658;85.326;2022-12-10T08:38:29;48.80;26.20
69204;DHT22;56317;27.658;85.326;2022-12-10T08:40:57;48.80;26.40
69204;DHT22;56317;27.658;85.326;2022-12-10T08:43:25;48.80;26.20
69204;DHT22;56317;27.658;85.326;2022-12-10T08:45:52;48.70;25.90
69204;DHT22;56317;27.658;85.326;2022-12-10T08:48:20;48.70;25.80
69204;DHT22;56317;27.658;85.326;2022-12-10T08:50:50;48.70;26.10
69204;DHT22;56317;27.658;85.326;2022-12-10T08:53:17;49.10;26.40
69204;DHT22;56317;27.658;85.326;2022-12-10T08:55:45;49.00;25.90
69204;DHT22;56317;27.658;85.326;2022-12-10T08:58:12;49.10;25.60
69204;DHT22;56317;27.658;85.326;2022-12-10T09:00:39;48.60;25.60
69204;DHT22;56317;27.658;85.326;2022-12-10T09:03:07;48.20;26.60
69204;DHT22;56317;27.658;85.326;2022-12-10T09:05:35;47.60;26.30
69204;DHT22;56317;27.658;85.326;2022-12-10T09:08:02;47.40;26.20
69204;DHT22;56317;27.658;85.326;2022-12-10T09:10:30;47.40;26.00
69204;DHT22;56317;27.658;85.326;2022-12-10T09:12:57;47.40;26.20
69204;DHT22;56317;27.658;85.326;2022-12-10T09:15:24;47.50;26.10
69204;DHT22;56317;27.658;85.326;2022-12-10T09:17:51;47.30;26.40
69204;DHT22;56317;27.658;85.326;2022-12-10T09:20:18;47.20;26.30
69204;DHT22;56317;27.658;85.326;2022-12-10T09:22:46;46.70;26.40
69204;DHT22;56317;27.658;85.326;2022-12-10T09:25:13;46.70;26.70
69204;DHT22;56317;27.658;85.326;2022-12-10T09:27:43;46.70;26.70
69204;DHT22;56317;27.658;85.326;2022-12-10T09:30:11;46.70;26.60
69204;DHT22;56317;27.658;85.326;2022-12-10T09:32:38;46.70;26.60
69204;DHT22;56317;27.658;85.326;2022-12-10T09:35:06;46.70;26.60
69204;DHT22;56317;27.658;85.326;2022-12-10T09:37:33;46.40;26.60
69204;DHT22;56317;27.658;85.326;2022-12-10T09:40:00;46.30;26.40
69204;DHT22;56317;27.658;85.326;2022-12-10T09:45:45;45.70;27.00
69204;DHT22;56317;27.658;85.326;2022-12-10T09:48:30;45.70;27.00
69204;DHT22;56317;27.658;85.326;2022-12-10T09:51:19;45.40;27.30
69204;DHT22;56317;27.658;85.326;2022-12-10T09:53:49;45.00;26.90
69204;DHT22;56317;27.658;85.326;2022-12-10T09:56:36;43.80;27.30
69204;DHT22;56317;27.658;85.326;2022-12-10T09:59:42;43.40;27.70
69204;DHT22;56317;27.658;85.326;2022-12-10T10:02:27;43.10;27.90
69204;DHT22;56317;27.658;85.326;2022-12-10T10:07:52;42.90;27.90
69204;DHT22;56317;27.658;85.326;2022-12-10T10:10:30;42.60;27.90
69204;DHT22;56317;27.658;85.326;2022-12-10T10:15:42;40.80;28.50
69204;DHT22;56317;27.658;85.326;2022-12-10T10:18:41;39.10;29.10
69204;DHT22;56317;27.658;85.326;2022-12-10T10:21:37;37.70;29.50
69204;DHT22;56317;27.658;85.326;2022-12-10T10:24:03;37.00;29.80
69204;DHT22;56317;27.658;85.326;2022-12-10T10:26:32;36.00;30.10
69204;DHT22;56317;27.658;85.326;2022-12-10T10:29:02;35.00;31.00
69204;DHT22;56317;27.658;85.326;2022-12-10T10:31:33;34.10;31.50
69204;DHT22;56317;27.658;85.326;2022-12-10T10:34:03;32.80;32.60
69204;DHT22;56317;27.658;85.326;2022-12-10T10:36:36;31.60;34.00
69204;DHT22;56317;27.658;85.326;2022-12-10T10:39:31;30.60;35.10
69204;DHT22;56317;27.658;85.326;2022-12-10T10:42:08;29.10;37.10
69204;DHT22;56317;27.658;85.326;2022-12-10T10:44:38;27.60;37.60
69204;DHT22;56317;27.658;85.326;2022-12-10T10:47:26;26.00;39.60
69204;DHT22;56317;27.658;85.326;2022-12-10T10:50:23;24.50;41.70
69204;DHT22;56317;27.658;85.326;2022-12-10T10:52:51;23.10;45.00
69204;DHT22;56317;27.658;85.326;2022-12-10T10:55:39;22.10;46.80
69204;DHT22;56317;27.658;85.326;2022-12-10T10:58:19;21.20;48.70
69204;DHT22;56317;27.658;85.326;2022-12-10T11:01:07;20.40;48.00
69204;DHT22;56317;27.658;85.326;2022-12-10T11:03:35;19.70;51.30
69204;DHT22;56317;27.658;85.326;2022-12-10T11:06:06;19.10;52.10
69204;DHT22;56317;27.658;85.326;2022-12-10T11:08:37;18.60;53.00
69204;DHT22;56317;27.658;85.326;2022-12-10T11:11:31;18.20;53.10
69204;DHT22;56317;27.658;85.326;2022-12-10T11:14:23;17.80;56.20
69204;DHT22;56317;27.658;85.326;2022-12-10T11:16:59;17.30;57.30
69204;DHT22;56317;27.658;85.326;2022-12-10T11:19:27;16.90;57.50
69204;DHT22;56317;27.658;85.326;2022-12-10T11:21:54;16.60;57.40
69204;DHT22;56317;27.658;85.326;2022-12-10T11:24:21;16.30;59.10
69204;DHT22;56317;27.658;85.326;2022-12-10T11:38:22;15.30;61.00
69204;DHT22;56317;27.658;85.326;2022-12-10T11:43:39;15.10;64.50
69204;DHT22;56317;27.658;85.326;2022-12-10T11:51:47;14.60;67.20
69204;DHT22;56317;27.658;85.326;2022-12-10T12:00:05;14.30;69.10
69204;DHT22;56317;27.658;85.326;2022-12-10T12:02:55;14.20;70.00
69204;DHT22;56317;27.658;85.326;2022-12-10T12:19:07;13.90;73.80
69204;DHT22;56317;27.658;85.326;2022-12-10T12:21:37;13.80;74.00
69204;DHT22;56317;27.658;85.326;2022-12-10T12:24:16;13.70;74.10
69204;DHT22;56317;27.658;85.326;2022-12-10T12:27:02;13.70;75.00
69204;DHT22;56317;27.658;85.326;2022-12-10T12:29:36;13.70;74.90
69204;DHT22;56317;27.658;85.326;2022-12-10T12:35:44;13.70;76.00
69204;DHT22;56317;27.658;85.326;2022-12-10T12:38:19;13.70;76.40
69204;DHT22;56317;27.658;85.326;2022-12-10T12:46:14;13.70;77.90
69204;DHT22;56317;27.658;85.326;2022-12-10T12:48:57;13.60;78.60
69204;DHT22;56317;27.658;85.326;2022-12-10T12:51:29;13.50;80.00
69204;DHT22;56317;27.658;85.326;2022-12-10T12:53:58;13.40;80.70
69204;DHT22;56317;27.658;85.326;2022-12-10T12:56:55;13.40;81.00
69204;DHT22;56317;27.658;85.326;2022-12-10T13:02:15;13.20;84.00
69204;DHT22;56317;27.658;85.326;2022-12-10T13:04:45;13.00;83.20
69204;DHT22;56317;27.658;85.326;2022-12-10T13:12:30;12.70;86.00
69204;DHT22;56317;27.658;85.326;2022-12-10T13:15:49;12.60;86.20
69204;DHT22;56317;27.658;85.326;2022-12-10T13:23:28;12.30;89.90
69204;DHT22;56317;27.658;85.326;2022-12-10T13:25:58;12.20;90.40
69204;DHT22;56317;27.658;85.326;2022-12-10T13:33:51;11.90;93.20
69204;DHT22;56317;27.658;85.326;2022-12-10T13:36:33;12.00;93.40
69204;DHT22;56317;27.658;85.326;2022-12-10T13:41:39;11.80;93.90
69204;DHT22;56317;27.658;85.326;2022-12-10T13:44:50;11.70;94.10
69204;DHT22;56317;27.658;85.326;2022-12-10T13:50:06;11.60;95.40
69204;DHT22;56317;27.658;85.326;2022-12-10T13:53:03;11.50;96.20
69204;DHT22;56317;27.658;85.326;2022-12-10T13:56:04;11.40;96.40
69204;DHT22;56317;27.658;85.326;2022-12-10T14:04:42;11.20;98.50
69204;DHT22;56317;27.658;85.326;2022-12-10T14:07:13;11.20;98.70
69204;DHT22;56317;27.658;85.326;2022-12-10T14:09:54;11.10;99.60
69204;DHT22;56317;27.658;85.326;2022-12-10T14:12:37;11.10;99.90
69204;DHT22;56317;27.658;85.326;2022-12-10T14:15:17;11.00;99.90
69204;DHT22;56317;27.658;85.326;2022-12-10T14:17:45;10.90;99.90
69204;DHT22;56317;27.658;85.326;2022-12-10T14:20:24;10.90;99.90
69204;DHT22;56317;27.658;85.326;2022-12-10T14:22:54;10.80;99.90
69204;DHT22;56317;27.658;85.326;2022-12-10T14:25:43;10.70;99.90
69204;DHT22;56317;27.658;85.326;2022-12-10T14:28:16;10.60;99.90
69204;DHT22;56317;27.658;85.326;2022-12-10T14:30:46;10.50;99.90
69204;DHT22;56317;27.658;85.326;2022-12-10T14:33:17;10.50;99.90
69204;DHT22;56317;27.658;85.326;2022-12-10T14:35:49;10.40;99.90
69204;DHT22;56317;27.658;85.326;2022-12-10T14:38:31;10.30;99.90
69204;DHT22;56317;27.658;85.326;2022-12-10T14:41:01;10.30;99.90
69204;DHT22;56317;27.658;85.326;2022-12-10T14:43:38;10.30;99.90
69204;DHT22;56317;27.658;85.326;2022-12-10T14:46:12;10.20;99.90
69204;DHT22;56317;27.658;85.326;2022-12-10T14:48:41;10.20;99.90
69204;DHT22;56317;27.658;85.326;2022-12-10T14:51:21;10.20;99.90
69204;DHT22;56317;27.658;85.326;2022-12-10T14:53:51;10.20;99.90
69204;DHT22;56317;27.658;85.326;2022-12-10T14:56:39;10.20;99.90
69204;DHT22;56317;27.658;85.326;2022-12-10T14:59:21;10.20;99.90
69204;DHT22;56317;27.658;85.326;2022-12-10T15:01:54;10.10;99.90
69204;DHT22;56317;27.658;85.326;2022-12-10T15:04:23;10.10;99.90
69204;DHT22;56317;27.658;85.326;2022-12-10T15:06:51;10.00;99.90
69204;DHT22;56317;27.658;85.326;2022-12-10T15:09:26;10.00;99.90
69204;DHT22;56317;27.658;85.326;2022-12-10T15:11:55;10.00;99.90
69204;DHT22;56317;27.658;85.326;2022-12-10T15:14:24;10.00;99.90
69204;DHT22;56317;27.658;85.326;2022-12-10T15:16:52;10.00;99.90
69204;DHT22;56317;27.658;85.326;2022-12-10T15:21:56;9.90;99.90
69204;DHT22;56317;27.658;85.326;2022-12-10T15:24:32;9.80;99.90
69204;DHT22;56317;27.658;85.326;2022-12-10T15:27:12;9.80;99.90
69204;DHT22;56317;27.658;85.326;2022-12-10T15:29:41;9.70;99.90
69204;DHT22;56317;27.658;85.326;2022-12-10T15:32:15;9.70;99.90
69204;DHT22;56317;27.658;85.326;2022-12-10T15:34:48;9.60;99.90
69204;DHT22;56317;27.658;85.326;2022-12-10T15:37:26;9.70;99.90
69204;DHT22;56317;27.658;85.326;2022-12-10T15:39:56;9.60;99.90
69204;DHT22;56317;27.658;85.326;2022-12-10T15:42:37;9.60;99.90
69204;DHT22;56317;27.658;85.326;2022-12-10T15:45:19;9.50;99.90
69204;DHT22;56317;27.658;85.326;2022-12-10T15:47:46;9.50;99.90
69204;DHT22;56317;27.658;85.326;2022-12-10T15:50:13;9.50;99.90
69204;DHT22;56317;27.658;85.326;2022-12-10T15:52:42;9.40;99.90
69204;DHT22;56317;27.658;85.326;2022-12-10T15:55:12;9.40;99.90
69204;DHT22;56317;27.658;85.326;2022-12-10T15:57:41;9.30;99.90
69204;DHT22;56317;27.658;85.326;2022-12-10T16:00:24;9.30;99.90
69204;DHT22;56317;27.658;85.326;2022-12-10T16:03:02;9.20;99.90
69204;DHT22;56317;27.658;85.326;2022-12-10T16:05:32;9.20;99.90
69204;DHT22;56317;27.658;85.326;2022-12-10T16:10:34;9.10;99.90
69204;DHT22;56317;27.658;85.326;2022-12-10T16:13:03;9.10;99.90
69204;DHT22;56317;27.658;85.326;2022-12-10T16:15:33;9.10;99.90
69204;DHT22;56317;27.658;85.326;2022-12-10T16:18:03;9.00;99.90
69204;DHT22;56317;27.658;85.326;2022-12-10T16:20:31;9.00;99.90
69204;DHT22;56317;27.658;85.326;2022-12-10T16:22:59;9.00;99.90
69204;DHT22;56317;27.658;85.326;2022-12-10T16:25:28;8.90;99.90
69204;DHT22;56317;27.658;85.326;2022-12-10T16:27:57;8.90;99.90
69204;DHT22;56317;27.658;85.326;2022-12-10T16:30:27;8.90;99.90
69204;DHT22;56317;27.658;85.326;2022-12-10T16:32:55;8.90;99.90
69204;DHT22;56317;27.658;85.326;2022-12-10T16:35:22;8.90;99.90
69204;DHT22;56317;27.658;85.326;2022-12-10T16:37:50;8.90;99.90
69204;DHT22;56317;27.658;85.326;2022-12-10T16:40:25;8.90;99.90
69204;DHT22;56317;27.658;85.326;2022-12-10T16:42:51;8.90;99.90
69204;DHT22;56317;27.658;85.326;2022-12-10T16:45:22;9.00;99.90
69204;DHT22;56317;27.658;85.326;2022-12-10T16:47:50;9.00;99.90
69204;DHT22;56317;27.658;85.326;2022-12-10T16:50:18;9.10;99.90
69204;DHT22;56317;27.658;85.326;2022-12-10T16:52:45;9.10;99.90
69204;DHT22;56317;27.658;85.326;2022-12-10T16:55:21;9.00;99.90
69204;DHT22;56317;27.658;85.326;2022-12-10T16:57:49;8.90;99.90
69204;DHT22;56317;27.658;85.326;2022-12-10T17:00:19;8.90;99.90
69204;DHT22;56317;27.658;85.326;2022-12-10T17:02:48;8.80;99.90
69204;DHT22;56317;27.658;85.326;2022-12-10T17:07:44;8.70;99.90
69204;DHT22;56317;27.658;85.326;2022-12-10T17:10:12;8.60;99.90
69204;DHT22;56317;27.658;85.326;2022-12-10T17:12:41;8.60;99.90
69204;DHT22;56317;27.658;85.326;2022-12-10T17:15:13;8.60;99.90
69204;DHT22;56317;27.658;85.326;2022-12-10T17:17:39;8.50;99.90
69204;DHT22;56317;27.658;85.326;2022-12-10T17:20:16;8.50;99.90
69204;DHT22;56317;27.658;85.326;2022-12-10T17:22:43;8.50;99.90
69204;DHT22;56317;27.658;85.326;2022-12-10T17:25:11;8.50;99.90
69204;DHT22;56317;27.658;85.326;2022-12-10T17:27:38;8.50;99.90
69204;DHT22;56317;27.658;85.326;2022-12-10T17:30:16;8.40;99.90
69204;DHT22;56317;27.658;85.326;2022-12-10T17:32:43;8.40;99.90
69204;DHT22;56317;27.658;85.326;2022-12-10T17:35:11;8.50;99.90
69204;DHT22;56317;27.658;85.326;2022-12-10T17:37:38;8.50;99.90
69204;DHT22;56317;27.658;85.326;2022-12-10T17:40:17;8.50;99.90
69204;DHT22;56317;27.658;85.326;2022-12-10T17:42:44;8.50;99.90
69204;DHT22;56317;27.658;85.326;2022-12-10T17:45:15;8.40;99.90
69204;DHT22;56317;27.658;85.326;2022-12-10T17:47:43;8.40;99.90
69204;DHT22;56317;27.658;85.326;2022-12-10T17:50:30;8.50;99.90
69204;DHT22;56317;27.658;85.326;2022-12-10T17:53:00;8.50;99.90
69204;DHT22;56317;27.658;85.326;2022-12-10T17:55:27;8.50;99.90